createdAt,value
2019-03-30T00:00:05.700Z,86.00
2019-03-30T00:01:05.683Z,86.21
2019-03-30T00:02:05.696Z,86.21
2019-03-30T00:03:05.670Z,86.41
2019-03-30T00:04:05.662Z,86.15
2019-03-30T00:05:05.647Z,86.52
2019-03-30T00:06:05.632Z,85.94
2019-03-30T00:07:05.637Z,86.52
2019-03-30T00:08:05.616Z,87.13
2019-03-30T00:09:05.604Z,87.07
2019-03-30T00:10:05.597Z,87.07
2019-03-30T00:11:05.585Z,86.82
2019-03-30T00:12:05.610Z,87.07
2019-03-30T00:13:05.555Z,87.07
2019-03-30T00:14:05.569Z,87.27
2019-03-30T00:15:05.543Z,87.17
2019-03-30T00:16:05.526Z,86.87
2019-03-30T00:17:05.517Z,86.76
2019-03-30T00:18:05.604Z,87.07
2019-03-30T00:19:05.494Z,86.76
2019-03-30T00:20:05.493Z,87.07
2019-03-30T00:21:05.475Z,87.11
2019-03-30T00:22:05.476Z,87.27
2019-03-30T00:23:05.453Z,87.32
2019-03-30T00:24:05.469Z,87.48
2019-03-30T00:25:05.435Z,87.52
2019-03-30T00:26:05.417Z,87.59
2019-03-30T00:27:05.405Z,87.90
2019-03-30T00:28:05.402Z,87.69
2019-03-30T00:29:05.422Z,87.90
2019-03-30T00:30:05.380Z,87.21
2019-03-30T00:31:05.376Z,87.42
2019-03-30T00:32:05.374Z,87.38
2019-03-30T00:33:05.352Z,87.83
2019-03-30T00:34:05.339Z,87.73
2019-03-30T00:35:05.352Z,87.93
2019-03-30T00:36:05.317Z,88.24
2019-03-30T00:37:05.333Z,88.24
2019-03-30T00:38:05.286Z,88.35
2019-03-30T00:39:05.280Z,88.35
2019-03-30T00:40:05.280Z,88.35
2019-03-30T00:41:05.264Z,88.35
2019-03-30T00:42:05.254Z,88.04
2019-03-30T00:43:05.261Z,88.24
2019-03-30T00:44:05.228Z,88.45
2019-03-30T00:45:05.235Z,88.24
2019-03-30T00:46:05.205Z,88.35
2019-03-30T00:47:05.198Z,88.39
2019-03-30T00:48:05.181Z,88.35
2019-03-30T00:49:05.175Z,88.35
2019-03-30T00:50:05.201Z,88.65
2019-03-30T00:51:05.151Z,88.35
2019-03-30T00:52:05.140Z,88.35
2019-03-30T00:53:05.142Z,88.39
2019-03-30T00:54:05.125Z,88.24
2019-03-30T00:55:05.118Z,88.29
2019-03-30T00:56:05.128Z,88.56
2019-03-30T00:57:05.083Z,88.39
2019-03-30T00:58:05.078Z,88.08
2019-03-30T00:59:05.063Z,87.87
2019-03-30T01:00:05.057Z,88.29
2019-03-30T01:01:05.082Z,88.65
2019-03-30T01:02:05.037Z,88.65
2019-03-30T01:03:05.030Z,88.04
2019-03-30T01:04:05.013Z,88.59
2019-03-30T01:05:05.003Z,88.76
2019-03-30T01:06:04.999Z,88.39
2019-03-30T01:07:05.006Z,88.14
2019-03-30T01:08:04.973Z,88.29
2019-03-30T01:09:04.962Z,88.24
2019-03-30T01:10:04.941Z,88.29
2019-03-30T01:11:04.962Z,87.98
2019-03-30T01:12:04.925Z,88.90
2019-03-30T01:13:04.918Z,88.90
2019-03-30T01:14:04.907Z,88.59
2019-03-30T01:15:04.904Z,88.59
2019-03-30T01:16:04.899Z,88.59
2019-03-30T01:17:04.887Z,88.59
2019-03-30T01:18:04.861Z,88.59
2019-03-30T01:19:04.847Z,88.90
2019-03-30T01:20:04.840Z,88.90
2019-03-30T01:21:04.859Z,89.73
2019-03-30T01:22:04.822Z,89.83
2019-03-30T01:23:04.811Z,89.83
2019-03-30T01:24:04.799Z,89.56
2019-03-30T01:25:04.789Z,89.46
2019-03-30T01:26:04.791Z,89.25
2019-03-30T01:27:04.791Z,90.39
2019-03-30T01:28:04.761Z,90.08
2019-03-30T01:29:04.739Z,90.08
2019-03-30T01:30:04.731Z,89.98
2019-03-30T01:31:04.726Z,89.98
2019-03-30T01:32:04.735Z,90.08
2019-03-30T01:33:04.698Z,90.08
2019-03-30T01:34:04.686Z,90.22
2019-03-30T01:35:04.750Z,90.19
2019-03-30T01:36:04.663Z,90.08
2019-03-30T01:37:04.693Z,90.49
2019-03-30T01:38:04.648Z,89.87
2019-03-30T01:39:04.637Z,90.19
2019-03-30T01:40:04.623Z,90.19
2019-03-30T01:41:04.616Z,90.22
2019-03-30T01:42:04.610Z,90.12
2019-03-30T01:43:04.614Z,90.22
2019-03-30T01:44:04.587Z,90.53
2019-03-30T01:45:04.574Z,90.84
2019-03-30T01:46:04.556Z,90.43
2019-03-30T01:47:04.549Z,90.53
2019-03-30T01:48:04.556Z,91.22
2019-03-30T01:49:04.550Z,90.53
2019-03-30T01:50:16.697Z,90.43
2019-03-30T01:51:05.510Z,90.49
2019-03-30T01:52:04.500Z,90.43
2019-03-30T01:53:04.484Z,90.43
2019-03-30T01:54:04.470Z,90.53
2019-03-30T01:55:04.497Z,90.53
2019-03-30T01:56:04.459Z,90.43
2019-03-30T01:57:04.440Z,90.53
2019-03-30T01:58:04.429Z,90.53
2019-03-30T01:59:04.435Z,90.53
2019-03-30T02:00:04.408Z,90.43
2019-03-30T02:01:04.402Z,90.53
2019-03-30T02:02:04.394Z,90.53
2019-03-30T02:03:04.438Z,90.43
2019-03-30T02:04:04.394Z,90.22
2019-03-30T02:05:04.357Z,90.43
2019-03-30T02:06:04.343Z,91.26
2019-03-30T02:07:04.333Z,91.05
2019-03-30T02:08:04.320Z,91.26
2019-03-30T02:09:04.343Z,90.43
2019-03-30T02:10:04.310Z,90.43
2019-03-30T02:11:04.288Z,90.53
2019-03-30T02:12:04.281Z,90.19
2019-03-30T02:13:04.279Z,90.08
2019-03-30T02:14:04.264Z,90.08
2019-03-30T02:15:04.279Z,90.08
2019-03-30T02:16:04.242Z,90.12
2019-03-30T02:17:04.223Z,90.12
2019-03-30T02:18:04.219Z,90.12
2019-03-30T02:19:04.202Z,90.12
2019-03-30T02:20:04.208Z,90.22
2019-03-30T02:21:04.188Z,90.02
2019-03-30T02:22:04.189Z,90.12
2019-03-30T02:23:04.172Z,90.22
2019-03-30T02:24:04.156Z,90.02
2019-03-30T02:25:04.164Z,90.43
2019-03-30T02:26:04.149Z,90.43
2019-03-30T02:27:04.125Z,90.12
2019-03-30T02:28:06.937Z,90.43
2019-03-30T02:29:04.104Z,90.84
2019-03-30T02:30:04.117Z,91.26
2019-03-30T02:31:04.098Z,91.16
2019-03-30T02:32:04.152Z,91.16
2019-03-30T02:33:04.066Z,91.26
2019-03-30T02:34:04.053Z,91.46
2019-03-30T02:35:04.045Z,91.16
2019-03-30T02:36:04.046Z,91.46
2019-03-30T02:37:04.022Z,91.16
2019-03-30T02:38:04.030Z,91.05
2019-03-30T02:39:03.989Z,91.16
2019-03-30T02:40:03.982Z,91.36
2019-03-30T02:41:03.980Z,91.05
2019-03-30T02:42:03.969Z,91.09
2019-03-30T02:43:03.954Z,91.20
2019-03-30T02:44:03.972Z,91.50
2019-03-30T02:45:03.936Z,91.40
2019-03-30T02:46:03.926Z,91.50
2019-03-30T02:47:03.922Z,91.30
2019-03-30T02:48:03.907Z,91.20
2019-03-30T02:49:03.892Z,91.30
2019-03-30T02:50:03.899Z,91.20
2019-03-30T02:51:03.865Z,91.50
2019-03-30T02:52:03.853Z,91.30
2019-03-30T02:53:03.853Z,91.61
2019-03-30T02:54:03.902Z,91.30
2019-03-30T02:55:03.841Z,91.82
2019-03-30T02:56:03.829Z,91.50
2019-03-30T02:57:03.809Z,91.30
2019-03-30T02:58:03.809Z,91.50
2019-03-30T02:59:03.815Z,91.61
2019-03-30T03:00:03.794Z,91.40
2019-03-30T03:01:03.786Z,91.40
2019-03-30T03:02:03.784Z,91.16
2019-03-30T03:03:03.744Z,91.50
2019-03-30T03:04:03.752Z,90.68
2019-03-30T03:05:03.735Z,90.58
2019-03-30T03:06:03.739Z,90.99
2019-03-30T03:07:03.709Z,90.89
2019-03-30T03:08:03.694Z,91.09
2019-03-30T03:09:03.684Z,91.09
2019-03-30T03:10:03.688Z,91.30
2019-03-30T03:11:04.672Z,91.09
2019-03-30T03:12:03.677Z,91.30
2019-03-30T03:13:03.702Z,91.30
2019-03-30T03:14:03.632Z,91.30
2019-03-30T03:15:03.626Z,91.30
2019-03-30T03:16:03.613Z,91.20
2019-03-30T03:17:03.626Z,91.09
2019-03-30T03:18:03.599Z,91.20
2019-03-30T03:19:03.588Z,91.30
2019-03-30T03:20:03.571Z,91.09
2019-03-30T03:21:08.032Z,91.30
2019-03-30T03:22:04.545Z,91.09
2019-03-30T03:23:03.554Z,91.30
2019-03-30T03:24:03.528Z,91.50
2019-03-30T03:25:03.531Z,91.86
2019-03-30T03:26:03.530Z,92.07
2019-03-30T03:27:03.500Z,92.27
2019-03-30T03:28:03.487Z,92.27
2019-03-30T03:29:03.483Z,92.00
2019-03-30T03:30:03.460Z,92.89
2019-03-30T03:31:03.499Z,92.89
2019-03-30T03:32:03.451Z,92.58
2019-03-30T03:33:03.617Z,92.58
2019-03-30T03:34:03.438Z,92.58
2019-03-30T03:35:03.432Z,92.99
2019-03-30T03:36:03.425Z,92.07
2019-03-30T03:37:03.417Z,92.27
2019-03-30T03:38:03.387Z,92.02
2019-03-30T03:39:03.381Z,92.38
2019-03-30T03:40:03.374Z,92.23
2019-03-30T03:41:03.366Z,91.71
2019-03-30T03:42:03.366Z,92.33
2019-03-30T03:43:03.328Z,92.54
2019-03-30T03:44:03.317Z,92.02
2019-03-30T03:45:03.317Z,92.17
2019-03-30T03:46:03.309Z,92.23
2019-03-30T03:47:03.308Z,92.23
2019-03-30T03:48:03.282Z,92.13
2019-03-30T03:49:03.308Z,91.75
2019-03-30T03:50:03.266Z,91.71
2019-03-30T03:51:03.371Z,92.02
2019-03-30T03:52:03.251Z,92.23
2019-03-30T03:53:03.238Z,92.33
2019-03-30T03:54:03.241Z,92.44
2019-03-30T03:55:03.204Z,92.23
2019-03-30T03:56:03.193Z,92.68
2019-03-30T03:57:03.256Z,92.02
2019-03-30T03:58:03.184Z,91.92
2019-03-30T03:59:03.192Z,92.58
2019-03-30T04:00:03.215Z,91.92
2019-03-30T04:01:03.172Z,92.23
2019-03-30T04:02:03.147Z,92.44
2019-03-30T04:03:03.149Z,92.33
2019-03-30T04:04:03.127Z,91.71
2019-03-30T04:05:03.124Z,91.61
2019-03-30T04:06:03.096Z,91.92
2019-03-30T04:07:03.102Z,91.96
2019-03-30T04:08:03.078Z,92.48
2019-03-30T04:09:03.069Z,92.93
2019-03-30T04:10:03.102Z,92.83
2019-03-30T04:11:03.063Z,92.83
2019-03-30T04:12:03.041Z,92.83
2019-03-30T04:13:06.781Z,93.24
2019-03-30T04:14:03.021Z,93.70
2019-03-30T04:15:02.999Z,93.76
2019-03-30T04:16:03.021Z,94.12
2019-03-30T04:17:02.992Z,93.91
2019-03-30T04:18:03.003Z,93.55
2019-03-30T04:19:02.962Z,93.76
2019-03-30T04:20:02.952Z,93.97
2019-03-30T04:21:02.983Z,93.49
2019-03-30T04:22:02.941Z,93.14
2019-03-30T04:23:02.931Z,93.24
2019-03-30T04:24:02.915Z,93.14
2019-03-30T04:25:02.907Z,93.35
2019-03-30T04:26:02.914Z,93.04
2019-03-30T04:27:02.877Z,93.14
2019-03-30T04:28:02.869Z,92.72
2019-03-30T04:29:02.917Z,92.83
2019-03-30T04:30:02.865Z,92.83
2019-03-30T04:31:02.862Z,92.63
2019-03-30T04:32:02.838Z,92.72
2019-03-30T04:33:02.834Z,92.63
2019-03-30T04:34:02.809Z,92.63
2019-03-30T04:35:02.800Z,92.63
2019-03-30T04:36:02.787Z,92.63
2019-03-30T04:37:02.814Z,92.72
2019-03-30T04:38:02.772Z,92.46
2019-03-30T04:39:02.755Z,92.77
2019-03-30T04:40:02.752Z,92.77
2019-03-30T04:41:02.736Z,93.39
2019-03-30T04:42:02.732Z,93.18
2019-03-30T04:43:02.748Z,93.39
2019-03-30T04:44:02.715Z,94.07
2019-03-30T04:45:02.693Z,93.80
2019-03-30T04:46:02.680Z,93.35
2019-03-30T04:47:02.707Z,93.76
2019-03-30T04:48:02.662Z,93.70
2019-03-30T04:49:02.658Z,93.80
2019-03-30T04:50:02.654Z,93.80
2019-03-30T04:51:02.635Z,93.60
2019-03-30T04:52:02.618Z,93.80
2019-03-30T04:53:02.633Z,93.66
2019-03-30T04:54:02.603Z,93.08
2019-03-30T04:55:02.594Z,92.77
2019-03-30T04:56:02.587Z,92.87
2019-03-30T04:57:02.570Z,92.57
2019-03-30T04:58:02.596Z,92.63
2019-03-30T04:59:02.545Z,92.97
2019-03-30T05:00:02.543Z,92.32
2019-03-30T05:01:02.533Z,92.11
2019-03-30T05:02:02.529Z,91.84
2019-03-30T05:03:02.513Z,91.90
2019-03-30T05:04:02.521Z,91.38
2019-03-30T05:05:02.486Z,91.07
2019-03-30T05:06:02.478Z,91.38
2019-03-30T05:07:02.472Z,91.17
2019-03-30T05:08:02.493Z,91.59
2019-03-30T05:09:02.449Z,90.66
2019-03-30T05:10:02.433Z,90.77
2019-03-30T05:11:02.423Z,90.45
2019-03-30T05:12:02.415Z,91.59
2019-03-30T05:13:02.413Z,91.38
2019-03-30T05:14:02.419Z,91.07
2019-03-30T05:15:02.390Z,91.28
2019-03-30T05:16:02.378Z,91.34
2019-03-30T05:17:02.370Z,91.17
2019-03-30T05:18:02.360Z,90.83
2019-03-30T05:19:02.362Z,91.13
2019-03-30T05:20:02.335Z,90.26
2019-03-30T05:21:02.328Z,89.95
2019-03-30T05:22:11.973Z,88.16
2019-03-30T05:23:03.298Z,88.06
2019-03-30T05:24:02.319Z,87.71
2019-03-30T05:25:02.304Z,86.88
2019-03-30T05:26:02.329Z,86.22
2019-03-30T05:27:02.267Z,85.57
2019-03-30T05:28:02.255Z,84.94
2019-03-30T05:29:02.242Z,84.59
2019-03-30T05:30:02.253Z,84.39
2019-03-30T05:31:02.232Z,83.53
2019-03-30T05:32:02.208Z,83.28
2019-03-30T05:33:06.005Z,81.95
2019-03-30T05:34:02.189Z,82.01
2019-03-30T05:35:02.203Z,82.05
2019-03-30T05:36:02.187Z,81.33
2019-03-30T05:37:02.159Z,81.02
2019-03-30T05:38:02.142Z,81.74
2019-03-30T05:39:02.146Z,81.74
2019-03-30T05:40:02.157Z,82.05
2019-03-30T05:41:02.116Z,81.88
2019-03-30T05:42:02.099Z,82.50
2019-03-30T05:43:02.105Z,82.91
2019-03-30T05:44:02.077Z,82.50
2019-03-30T05:45:02.098Z,82.81
2019-03-30T05:46:02.082Z,82.70
2019-03-30T05:47:02.051Z,81.84
2019-03-30T05:48:02.040Z,82.21
2019-03-30T05:49:02.027Z,80.57
2019-03-30T05:50:02.014Z,81.19
2019-03-30T05:51:02.023Z,80.12
2019-03-30T05:52:01.993Z,79.57
2019-03-30T05:53:01.995Z,79.47
2019-03-30T05:54:01.979Z,79.36
2019-03-30T05:55:01.969Z,79.95
2019-03-30T05:56:01.971Z,80.61
2019-03-30T05:57:01.965Z,82.29
2019-03-30T05:58:01.936Z,81.91
2019-03-30T05:59:01.929Z,79.77
2019-03-30T06:00:01.917Z,78.16
2019-03-30T06:01:01.910Z,75.49
2019-03-30T06:02:01.918Z,73.78
2019-03-30T06:03:01.894Z,71.66
2019-03-30T06:04:01.871Z,70.06
2019-03-30T06:05:03.686Z,68.46
2019-03-30T06:06:01.851Z,67.00
2019-03-30T06:07:01.873Z,66.15
2019-03-30T06:08:01.830Z,65.28
2019-03-30T06:09:01.816Z,64.56
2019-03-30T06:10:01.804Z,64.25
2019-03-30T06:11:11.166Z,64.46
2019-03-30T06:12:01.785Z,64.08
2019-03-30T06:13:01.798Z,65.61
2019-03-30T06:14:01.810Z,65.95
2019-03-30T06:15:01.764Z,65.84
2019-03-30T06:16:01.751Z,65.20
2019-03-30T06:17:01.739Z,65.00
2019-03-30T06:18:01.756Z,64.18
2019-03-30T06:19:01.709Z,64.25
2019-03-30T06:20:01.704Z,63.61
2019-03-30T06:21:01.719Z,62.43
2019-03-30T06:22:01.678Z,61.69
2019-03-30T06:23:01.670Z,60.34
2019-03-30T06:24:01.662Z,59.37
2019-03-30T06:25:01.654Z,59.06
2019-03-30T06:26:01.648Z,57.68
2019-03-30T06:27:01.657Z,57.51
2019-03-30T06:28:01.622Z,57.38
2019-03-30T06:29:01.614Z,57.61
2019-03-30T06:30:01.600Z,57.84
2019-03-30T06:31:01.582Z,59.93
2019-03-30T06:32:01.571Z,60.64
2019-03-30T06:33:01.583Z,60.24
2019-03-30T06:34:01.547Z,60.14
2019-03-30T06:35:01.546Z,59.16
2019-03-30T06:36:01.554Z,58.86
2019-03-30T06:37:01.524Z,58.69
2019-03-30T06:38:01.530Z,58.65
2019-03-30T06:39:01.497Z,57.64
2019-03-30T06:40:01.496Z,59.63
2019-03-30T06:41:01.485Z,59.19
2019-03-30T06:42:01.476Z,58.96
2019-03-30T06:43:01.487Z,57.61
2019-03-30T06:44:01.444Z,57.79
2019-03-30T06:45:01.429Z,56.74
2019-03-30T06:46:01.420Z,55.53
2019-03-30T06:47:01.421Z,55.93
2019-03-30T06:48:01.409Z,56.47
2019-03-30T06:49:01.838Z,57.74
2019-03-30T06:50:01.389Z,59.73
2019-03-30T06:51:01.371Z,58.58
2019-03-30T06:52:01.366Z,58.45
2019-03-30T06:53:01.348Z,57.59
2019-03-30T06:54:01.364Z,57.28
2019-03-30T06:55:01.334Z,56.65
2019-03-30T06:56:01.329Z,55.71
2019-03-30T06:57:01.313Z,53.78
2019-03-30T06:58:01.298Z,52.06
2019-03-30T06:59:01.290Z,49.96
2019-03-30T07:00:01.297Z,49.11
2019-03-30T07:01:01.268Z,47.35
2019-03-30T07:02:01.257Z,47.33
2019-03-30T07:03:01.253Z,47.11
2019-03-30T07:04:01.253Z,45.57
2019-03-30T07:05:01.226Z,46.28
2019-03-30T07:06:01.209Z,45.35
2019-03-30T07:07:01.205Z,46.28
2019-03-30T07:08:01.190Z,45.47
2019-03-30T07:09:01.211Z,45.78
2019-03-30T07:10:01.191Z,45.35
2019-03-30T07:11:01.173Z,45.17
2019-03-30T07:12:01.144Z,45.78
2019-03-30T07:13:01.141Z,46.93
2019-03-30T07:14:01.127Z,46.42
2019-03-30T07:15:01.135Z,47.11
2019-03-30T07:16:01.107Z,46.18
2019-03-30T07:17:01.827Z,45.78
2019-03-30T07:18:01.093Z,45.27
2019-03-30T07:19:01.072Z,46.15
2019-03-30T07:20:01.086Z,44.81
2019-03-30T07:21:01.075Z,44.59
2019-03-30T07:22:01.050Z,44.32
2019-03-30T07:23:11.923Z,45.59
2019-03-30T07:24:02.016Z,44.63
2019-03-30T07:25:01.021Z,44.81
2019-03-30T07:26:01.011Z,43.88
2019-03-30T07:27:00.994Z,43.36
2019-03-30T07:28:00.981Z,43.98
2019-03-30T07:29:00.966Z,43.66
2019-03-30T07:30:00.962Z,43.68
2019-03-30T07:31:00.967Z,43.86
2019-03-30T07:32:00.937Z,43.14
2019-03-30T07:33:00.928Z,42.68
2019-03-30T07:34:00.919Z,41.35
2019-03-30T07:35:00.902Z,41.24
2019-03-30T07:36:00.925Z,40.81
2019-03-30T07:37:00.883Z,39.98
2019-03-30T07:38:00.876Z,39.37
2019-03-30T07:39:00.878Z,38.96
2019-03-30T07:40:00.849Z,39.24
2019-03-30T07:41:00.855Z,38.00
2019-03-30T07:42:00.857Z,38.10
2019-03-30T07:43:00.820Z,37.62
2019-03-30T07:44:00.810Z,37.84
2019-03-30T07:45:00.805Z,38.02
2019-03-30T07:46:00.787Z,38.29
2019-03-30T07:47:00.793Z,38.09
2019-03-30T07:48:00.765Z,36.83
2019-03-30T07:49:00.775Z,36.54
2019-03-30T07:50:00.750Z,36.77
2019-03-30T07:51:00.737Z,36.89
2019-03-30T07:52:00.747Z,37.67
2019-03-30T07:53:00.713Z,37.79
2019-03-30T07:54:00.703Z,37.38
2019-03-30T07:55:00.698Z,36.77
2019-03-30T07:56:08.146Z,36.97
2019-03-30T07:57:07.463Z,37.02
2019-03-30T07:58:01.710Z,36.00
2019-03-30T07:59:00.654Z,36.21
2019-03-30T08:00:00.644Z,35.47
2019-03-30T08:01:00.626Z,35.19
2019-03-30T08:02:00.616Z,34.61
2019-03-30T08:03:00.633Z,36.10
2019-03-30T08:04:00.613Z,34.30
2019-03-30T08:05:00.595Z,34.50
2019-03-30T08:06:00.579Z,34.48
2019-03-30T08:07:00.562Z,33.27
2019-03-30T08:08:00.553Z,33.54
2019-03-30T08:09:00.559Z,32.93
2019-03-30T08:10:00.538Z,33.61
2019-03-30T08:11:00.525Z,32.81
2019-03-30T08:12:00.514Z,33.00
2019-03-30T08:13:00.515Z,32.60
2019-03-30T08:14:00.523Z,32.28
2019-03-30T08:15:00.480Z,31.66
2019-03-30T08:16:00.478Z,30.67
2019-03-30T08:17:00.474Z,30.49
2019-03-30T08:18:00.460Z,32.40
2019-03-30T08:19:00.479Z,32.75
2019-03-30T08:20:00.442Z,34.30
2019-03-30T08:21:00.421Z,34.86
2019-03-30T08:22:00.417Z,33.67
2019-03-30T08:23:00.416Z,33.64
2019-03-30T08:24:00.423Z,33.87
2019-03-30T08:25:00.403Z,34.08
2019-03-30T08:26:00.398Z,33.88
2019-03-30T08:27:00.394Z,34.58
2019-03-30T08:28:00.351Z,34.41
2019-03-30T08:29:00.339Z,35.96
2019-03-30T08:30:00.399Z,36.22
2019-03-30T08:31:00.339Z,35.59
2019-03-30T08:32:00.340Z,36.35
2019-03-30T08:33:00.296Z,36.89
2019-03-30T08:34:00.291Z,37.34
2019-03-30T08:35:00.411Z,38.16
2019-03-30T08:36:00.303Z,37.96
2019-03-30T08:37:00.271Z,37.68
2019-03-30T08:38:00.254Z,35.84
2019-03-30T08:39:00.247Z,35.94
2019-03-30T08:40:00.432Z,35.42
2019-03-30T08:41:00.255Z,35.42
2019-03-30T08:42:00.207Z,34.38
2019-03-30T08:43:00.218Z,33.55
2019-03-30T08:44:00.195Z,33.52
2019-03-30T08:45:00.362Z,32.42
2019-03-30T08:46:00.198Z,33.07
2019-03-30T08:47:00.176Z,33.54
2019-03-30T08:48:00.141Z,32.40
2019-03-30T08:49:00.138Z,32.18
2019-03-30T08:50:00.356Z,31.96
2019-03-30T08:51:00.106Z,31.54
2019-03-30T08:52:00.117Z,30.54
2019-03-30T08:53:00.098Z,29.25
2019-03-30T08:54:00.101Z,30.36
2019-03-30T08:55:00.149Z,30.95
2019-03-30T08:56:00.065Z,30.63
2019-03-30T08:57:00.053Z,30.23
2019-03-30T08:58:00.046Z,31.51
2019-03-30T08:59:00.050Z,33.09
2019-03-30T09:00:00.024Z,34.31
2019-03-30T09:01:00.006Z,34.46
2019-03-30T09:01:59.998Z,35.47
2019-03-30T09:02:59.993Z,36.59
2019-03-30T09:04:00.018Z,36.99
2019-03-30T09:04:59.981Z,35.64
2019-03-30T09:05:59.969Z,36.02
2019-03-30T09:06:59.950Z,34.89
2019-03-30T09:07:59.945Z,33.97
2019-03-30T09:08:59.951Z,33.39
2019-03-30T09:09:59.941Z,35.14
2019-03-30T09:10:59.919Z,36.32
2019-03-30T09:11:59.896Z,38.26
2019-03-30T09:12:59.888Z,38.79
2019-03-30T09:13:59.894Z,39.28
2019-03-30T09:14:59.871Z,37.86
2019-03-30T09:15:59.862Z,38.36
2019-03-30T09:16:59.861Z,38.22
2019-03-30T09:17:59.855Z,37.82
2019-03-30T09:18:59.854Z,37.32
2019-03-30T09:19:59.814Z,37.81
2019-03-30T09:20:59.812Z,37.29
2019-03-30T09:21:59.804Z,36.89
2019-03-30T09:22:59.784Z,37.21
2019-03-30T09:24:09.651Z,38.14
2019-03-30T09:25:00.806Z,37.60
2019-03-30T09:25:59.759Z,37.44
2019-03-30T09:26:59.754Z,37.98
2019-03-30T09:27:59.745Z,38.26
2019-03-30T09:28:59.737Z,39.15
2019-03-30T09:29:59.721Z,37.36
2019-03-30T09:30:59.729Z,38.16
2019-03-30T09:32:13.329Z,37.01
2019-03-30T09:33:00.685Z,36.69
2019-03-30T09:33:59.680Z,36.99
2019-03-30T09:34:59.672Z,36.47
2019-03-30T09:35:59.696Z,34.41
2019-03-30T09:36:59.652Z,33.15
2019-03-30T09:37:59.634Z,33.03
2019-03-30T09:38:59.633Z,32.00
2019-03-30T09:39:59.622Z,31.90
2019-03-30T09:40:59.619Z,31.52
2019-03-30T09:41:59.632Z,32.48
2019-03-30T09:42:59.605Z,33.78
2019-03-30T09:43:59.573Z,32.78
2019-03-30T09:44:59.568Z,34.40
2019-03-30T09:45:59.555Z,33.37
2019-03-30T09:46:59.575Z,32.35
2019-03-30T09:47:59.542Z,31.71
2019-03-30T09:48:59.538Z,30.58
2019-03-30T09:50:02.382Z,30.52
2019-03-30T09:50:59.508Z,30.97
2019-03-30T09:51:59.544Z,33.56
2019-03-30T09:52:59.502Z,35.53
2019-03-30T09:53:59.483Z,37.27
2019-03-30T09:54:59.472Z,37.46
2019-03-30T09:55:59.462Z,37.70
2019-03-30T09:56:59.458Z,38.31
2019-03-30T09:57:59.475Z,37.83
2019-03-30T09:58:59.440Z,37.29
2019-03-30T09:59:59.435Z,37.98
2019-03-30T10:00:59.420Z,37.36
2019-03-30T10:01:59.406Z,37.08
2019-03-30T10:03:00.279Z,37.26
2019-03-30T10:03:59.413Z,37.56
2019-03-30T10:05:00.403Z,37.26
2019-03-30T10:05:59.449Z,37.51
2019-03-30T10:06:59.360Z,39.05
2019-03-30T10:07:59.388Z,38.43
2019-03-30T10:08:59.394Z,38.33
2019-03-30T10:09:59.337Z,37.90
2019-03-30T10:10:59.324Z,37.46
2019-03-30T10:11:59.314Z,37.10
2019-03-30T10:12:59.301Z,35.97
2019-03-30T10:13:59.287Z,36.25
2019-03-30T10:14:59.304Z,35.44
2019-03-30T10:15:59.275Z,35.66
2019-03-30T10:16:59.251Z,34.11
2019-03-30T10:17:59.292Z,34.08
2019-03-30T10:18:59.314Z,33.36
2019-03-30T10:20:04.747Z,32.53
2019-03-30T10:21:00.230Z,31.42
2019-03-30T10:21:59.213Z,31.54
2019-03-30T10:22:59.215Z,31.90
2019-03-30T10:24:00.198Z,33.48
2019-03-30T10:24:59.234Z,35.68
2019-03-30T10:25:59.177Z,37.08
2019-03-30T10:26:59.155Z,37.29
2019-03-30T10:27:59.157Z,35.86
2019-03-30T10:28:59.141Z,36.02
2019-03-30T10:29:59.127Z,35.91
2019-03-30T10:30:59.117Z,36.04
2019-03-30T10:32:00.004Z,36.24
2019-03-30T10:32:59.124Z,35.82
2019-03-30T10:33:59.144Z,35.54
2019-03-30T10:34:59.104Z,35.42
2019-03-30T10:35:59.072Z,35.75
2019-03-30T10:36:59.047Z,35.82
2019-03-30T10:37:59.055Z,35.96
2019-03-30T10:38:59.038Z,36.97
2019-03-30T10:39:59.042Z,36.87
2019-03-30T10:40:59.033Z,36.67
2019-03-30T10:41:59.000Z,37.40
2019-03-30T10:42:58.994Z,35.84
2019-03-30T10:43:59.000Z,34.81
2019-03-30T10:44:58.986Z,35.33
2019-03-30T10:45:58.986Z,35.97
2019-03-30T10:46:58.960Z,37.64
2019-03-30T10:47:58.947Z,37.92
2019-03-30T10:48:58.941Z,38.93
2019-03-30T10:49:59.371Z,38.18
2019-03-30T10:50:58.925Z,37.38
2019-03-30T10:51:58.919Z,36.59
2019-03-30T10:52:58.903Z,36.89
2019-03-30T10:53:58.901Z,37.10
2019-03-30T10:54:58.933Z,37.59
2019-03-30T10:55:58.903Z,35.44
2019-03-30T10:56:58.863Z,36.04
2019-03-30T10:57:59.080Z,35.63
2019-03-30T10:58:58.841Z,34.61
2019-03-30T10:59:58.859Z,34.92
2019-03-30T11:00:58.840Z,35.96
2019-03-30T11:01:58.805Z,35.86
2019-03-30T11:02:58.807Z,35.82
2019-03-30T11:03:58.796Z,36.14
2019-03-30T11:04:58.795Z,35.72
2019-03-30T11:05:58.801Z,34.92
2019-03-30T11:06:58.769Z,34.56
2019-03-30T11:07:58.742Z,35.66
2019-03-30T11:08:58.736Z,34.23
2019-03-30T11:09:58.728Z,33.73
2019-03-30T11:10:58.818Z,33.76
2019-03-30T11:11:58.722Z,33.95
2019-03-30T11:12:58.694Z,33.47
2019-03-30T11:13:58.684Z,32.84
2019-03-30T11:14:58.681Z,31.47
2019-03-30T11:15:58.674Z,31.90
2019-03-30T11:16:58.701Z,33.48
2019-03-30T11:17:58.667Z,33.78
2019-03-30T11:18:58.657Z,31.64
2019-03-30T11:19:58.625Z,32.17
2019-03-30T11:20:58.617Z,33.30
2019-03-30T11:21:58.746Z,33.31
2019-03-30T11:22:58.605Z,34.21
2019-03-30T11:23:58.623Z,35.01
2019-03-30T11:25:07.172Z,34.50
2019-03-30T11:25:59.571Z,34.84
2019-03-30T11:26:58.918Z,32.78
2019-03-30T11:27:58.552Z,33.42
2019-03-30T11:28:59.344Z,33.40
2019-03-30T11:29:58.564Z,33.26
2019-03-30T11:30:58.565Z,33.73
2019-03-30T11:31:59.561Z,31.48
2019-03-30T11:32:58.535Z,31.15
2019-03-30T11:33:58.509Z,31.84
2019-03-30T11:34:58.497Z,30.84
2019-03-30T11:35:58.481Z,31.81
2019-03-30T11:36:59.331Z,32.60
2019-03-30T11:37:58.509Z,32.99
2019-03-30T11:38:58.440Z,33.15
2019-03-30T11:39:58.437Z,31.60
2019-03-30T11:40:58.453Z,30.06
2019-03-30T11:41:58.444Z,29.34
2019-03-30T11:42:58.428Z,29.54
2019-03-30T11:43:58.425Z,29.68
2019-03-30T11:44:58.380Z,29.79
2019-03-30T11:45:58.375Z,30.87
2019-03-30T11:46:58.369Z,32.81
2019-03-30T11:47:58.376Z,32.99
2019-03-30T11:48:58.356Z,33.07
2019-03-30T11:49:58.349Z,33.00
2019-03-30T11:50:59.333Z,33.73
2019-03-30T11:51:58.349Z,33.63
2019-03-30T11:52:58.366Z,33.72
2019-03-30T11:53:58.831Z,33.75
2019-03-30T11:54:58.330Z,34.73
2019-03-30T11:55:58.296Z,33.59
2019-03-30T11:57:07.911Z,31.75
2019-03-30T11:57:58.250Z,32.89
2019-03-30T11:58:58.269Z,33.93
2019-03-30T11:59:58.260Z,33.62
2019-03-30T12:00:58.264Z,32.89
2019-03-30T12:01:58.230Z,31.65
2019-03-30T12:02:58.276Z,31.54
2019-03-30T12:03:58.202Z,31.34
2019-03-30T12:04:58.195Z,32.09
2019-03-30T12:05:58.201Z,33.53
2019-03-30T12:06:58.176Z,33.90
2019-03-30T12:07:58.173Z,33.40
2019-03-30T12:08:58.151Z,31.14
2019-03-30T12:09:58.149Z,30.86
2019-03-30T12:10:58.182Z,30.74
2019-03-30T12:11:58.135Z,28.80
2019-03-30T12:12:58.139Z,29.21
2019-03-30T12:13:58.129Z,29.52
2019-03-30T12:14:58.097Z,30.41
2019-03-30T12:15:58.090Z,30.99
2019-03-30T12:16:58.166Z,30.02
2019-03-30T12:17:58.077Z,29.99
2019-03-30T12:18:58.318Z,28.66
2019-03-30T12:19:58.065Z,28.76
2019-03-30T12:20:58.048Z,30.21
2019-03-30T12:21:58.053Z,30.43
2019-03-30T12:22:58.022Z,30.86
2019-03-30T12:23:58.076Z,30.52
2019-03-30T12:24:58.085Z,29.97
2019-03-30T12:25:57.999Z,28.37
2019-03-30T12:26:58.010Z,28.80
2019-03-30T12:27:58.002Z,28.52
2019-03-30T12:28:57.972Z,29.50
2019-03-30T12:29:57.955Z,27.90
2019-03-30T12:30:57.963Z,28.94
2019-03-30T12:31:57.975Z,28.14
2019-03-30T12:32:57.958Z,28.25
2019-03-30T12:33:57.958Z,28.27
2019-03-30T12:34:57.921Z,27.25
2019-03-30T12:35:58.414Z,27.42
2019-03-30T12:36:57.913Z,27.25
2019-03-30T12:37:57.907Z,28.60
2019-03-30T12:38:58.405Z,29.03
2019-03-30T12:39:58.317Z,29.74
2019-03-30T12:40:57.895Z,30.66
2019-03-30T12:41:57.848Z,30.45
2019-03-30T12:42:57.840Z,31.05
2019-03-30T12:43:57.851Z,30.76
2019-03-30T12:44:57.814Z,30.04
2019-03-30T12:45:57.821Z,29.52
2019-03-30T12:46:58.395Z,29.22
2019-03-30T12:47:57.797Z,29.31
2019-03-30T12:48:57.833Z,29.81
2019-03-30T12:49:57.790Z,28.77
2019-03-30T12:50:57.774Z,29.10
2019-03-30T12:51:57.757Z,29.82